sensor_id;sensor_type;location;lat;lon;timestamp;temperature;humidity
20068;DHT22;10194;50.824;7.134;2024-03-06T00:01:05;6.70;99.90
20068;DHT22;10194;50.824;7.134;2024-03-06T00:03:32;6.60;99.90
20068;DHT22;10194;50.824;7.134;2024-03-06T00:05:58;6.60;99.90
20068;DHT22;10194;50.824;7.134;2024-03-06T00:08:24;6.70;99.90
20068;DHT22;10194;50.824;7.134;2024-03-06T00:10:49;6.60;99.90
20068;DHT22;10194;50.824;7.134;2024-03-06T00:13:15;6.70;99.90
20068;DHT22;10194;50.824;7.134;2024-03-06T00:15:41;6.60;99.90
20068;DHT22;10194;50.824;7.134;2024-03-06T00:18:06;6.60;99.90
20068;DHT22;10194;50.824;7.134;2024-03-06T00:20:32;6.70;99.90
20068;DHT22;10194;50.824;7.134;2024-03-06T00:22:58;6.70;99.90
20068;DHT22;10194;50.824;7.134;2024-03-06T00:25:25;6.70;99.90
20068;DHT22;10194;50.824;7.134;2024-03-06T00:27:50;6.60;99.90
20068;DHT22;10194;50.824;7.134;2024-03-06T00:30:16;6.50;99.90
20068;DHT22;10194;50.824;7.134;2024-03-06T00:32:42;6.50;99.90
20068;DHT22;10194;50.824;7.134;2024-03-06T00:35:08;6.50;99.90
20068;DHT22;10194;50.824;7.134;2024-03-06T00:37:34;6.50;99.90
20068;DHT22;10194;50.824;7.134;2024-03-06T00:40:00;6.60;99.90
20068;DHT22;10194;50.824;7.134;2024-03-06T00:42:25;6.50;99.90
20068;DHT22;10194;50.824;7.134;2024-03-06T00:44:51;6.50;99.90
20068;DHT22;10194;50.824;7.134;2024-03-06T00:47:17;6.40;99.90
20068;DHT22;10194;50.824;7.134;2024-03-06T00:49:43;6.40;99.90
20068;DHT22;10194;50.824;7.134;2024-03-06T00:52:08;6.40;99.90
20068;DHT22;10194;50.824;7.134;2024-03-06T00:54:35;6.40;99.90
20068;DHT22;10194;50.824;7.134;2024-03-06T00:57:01;6.40;99.90
20068;DHT22;10194;50.824;7.134;2024-03-06T00:59:27;6.30;99.90
20068;DHT22;10194;50.824;7.134;2024-03-06T01:01:53;6.30;99.90
20068;DHT22;10194;50.824;7.134;2024-03-06T01:04:22;6.30;99.90
20068;DHT22;10194;50.824;7.134;2024-03-06T01:06:48;6.30;99.90
20068;DHT22;10194;50.824;7.134;2024-03-06T01:09:14;6.30;99.90
20068;DHT22;10194;50.824;7.134;2024-03-06T01:11:39;6.20;99.90
20068;DHT22;10194;50.824;7.134;2024-03-06T01:14:05;6.30;99.90
20068;DHT22;10194;50.824;7.134;2024-03-06T01:16:31;6.40;99.90
20068;DHT22;10194;50.824;7.134;2024-03-06T01:18:57;6.30;99.90
20068;DHT22;10194;50.824;7.134;2024-03-06T01:21:22;6.20;99.90
20068;DHT22;10194;50.824;7.134;2024-03-06T01:23:48;6.20;99.90
20068;DHT22;10194;50.824;7.134;2024-03-06T01:26:14;6.20;99.90
20068;DHT22;10194;50.824;7.134;2024-03-06T01:28:40;6.30;99.90
20068;DHT22;10194;50.824;7.134;2024-03-06T01:31:06;6.30;99.90
20068;DHT22;10194;50.824;7.134;2024-03-06T01:33:32;6.20;99.90
20068;DHT22;10194;50.824;7.134;2024-03-06T01:35:57;6.20;99.90
20068;DHT22;10194;50.824;7.134;2024-03-06T01:38:23;6.20;99.90
20068;DHT22;10194;50.824;7.134;2024-03-06T01:40:49;6.20;99.90
20068;DHT22;10194;50.824;7.134;2024-03-06T01:43:22;6.20;99.90
20068;DHT22;10194;50.824;7.134;2024-03-06T01:45:50;6.10;99.90
20068;DHT22;10194;50.824;7.134;2024-03-06T01:48:17;6.10;99.90
20068;DHT22;10194;50.824;7.134;2024-03-06T01:50:46;6.00;99.90
20068;DHT22;10194;50.824;7.134;2024-03-06T01:53:13;5.90;99.90
20068;DHT22;10194;50.824;7.134;2024-03-06T01:55:41;5.90;99.90
20068;DHT22;10194;50.824;7.134;2024-03-06T01:58:07;5.90;99.90
20068;DHT22;10194;50.824;7.134;2024-03-06T02:00:34;6.00;99.90
20068;DHT22;10194;50.824;7.134;2024-03-06T02:03:00;6.00;99.90
20068;DHT22;10194;50.824;7.134;2024-03-06T02:05:28;6.10;99.90
20068;DHT22;10194;50.824;7.134;2024-03-06T02:07:55;6.10;99.90
20068;DHT22;10194;50.824;7.134;2024-03-06T02:10:23;6.10;99.90
20068;DHT22;10194;50.824;7.134;2024-03-06T02:12:49;6.10;99.90
20068;DHT22;10194;50.824;7.134;2024-03-06T02:15:15;6.00;99.90
20068;DHT22;10194;50.824;7.134;2024-03-06T02:17:41;6.00;99.90
20068;DHT22;10194;50.824;7.134;2024-03-06T02:20:08;6.10;99.90
20068;DHT22;10194;50.824;7.134;2024-03-06T02:22:38;6.10;99.90
20068;DHT22;10194;50.824;7.134;2024-03-06T02:25:06;6.10;99.90
20068;DHT22;10194;50.824;7.134;2024-03-06T02:27:32;6.20;99.90
20068;DHT22;10194;50.824;7.134;2024-03-06T02:29:58;6.20;99.90
20068;DHT22;10194;50.824;7.134;2024-03-06T02:32:24;6.20;99.90
20068;DHT22;10194;50.824;7.134;2024-03-06T02:34:51;6.20;99.90
20068;DHT22;10194;50.824;7.134;2024-03-06T02:37:16;6.20;99.90
20068;DHT22;10194;50.824;7.134;2024-03-06T02:39:43;6.10;99.90
20068;DHT22;10194;50.824;7.134;2024-03-06T02:42:09;6.20;99.90
20068;DHT22;10194;50.824;7.134;2024-03-06T02:44:35;6.10;99.90
20068;DHT22;10194;50.824;7.134;2024-03-06T02:47:00;6.10;99.90
20068;DHT22;10194;50.824;7.134;2024-03-06T02:49:26;6.10;99.90
20068;DHT22;10194;50.824;7.134;2024-03-06T02:51:52;6.10;99.90
20068;DHT22;10194;50.824;7.134;2024-03-06T02:54:17;6.10;99.90
20068;DHT22;10194;50.824;7.134;2024-03-06T02:56:44;6.00;99.90
20068;DHT22;10194;50.824;7.134;2024-03-06T02:59:10;6.00;99.90
20068;DHT22;10194;50.824;7.134;2024-03-06T03:01:36;5.90;99.90
20068;DHT22;10194;50.824;7.134;2024-03-06T03:04:01;5.90;99.90
20068;DHT22;10194;50.824;7.134;2024-03-06T03:06:27;5.90;99.90
20068;DHT22;10194;50.824;7.134;2024-03-06T03:08:54;5.90;99.90
20068;DHT22;10194;50.824;7.134;2024-03-06T03:11:21;5.90;99.90
20068;DHT22;10194;50.824;7.134;2024-03-06T03:13:47;5.80;99.90
20068;DHT22;10194;50.824;7.134;2024-03-06T03:16:19;5.70;99.90
20068;DHT22;10194;50.824;7.134;2024-03-06T03:18:46;5.60;99.90
20068;DHT22;10194;50.824;7.134;2024-03-06T03:21:12;5.60;99.90
20068;DHT22;10194;50.824;7.134;2024-03-06T03:23:38;5.70;99.90
20068;DHT22;10194;50.824;7.134;2024-03-06T03:26:08;5.60;99.90
20068;DHT22;10194;50.824;7.134;2024-03-06T03:28:38;5.60;99.90
20068;DHT22;10194;50.824;7.134;2024-03-06T03:31:10;5.40;99.90
20068;DHT22;10194;50.824;7.134;2024-03-06T03:33:39;5.30;99.90
20068;DHT22;10194;50.824;7.134;2024-03-06T03:36:05;5.10;99.90
20068;DHT22;10194;50.824;7.134;2024-03-06T03:38:38;5.00;99.90
20068;DHT22;10194;50.824;7.134;2024-03-06T03:41:10;5.00;99.90
20068;DHT22;10194;50.824;7.134;2024-03-06T03:43:38;5.00;99.90
20068;DHT22;10194;50.824;7.134;2024-03-06T03:46:05;4.90;99.90
20068;DHT22;10194;50.824;7.134;2024-03-06T03:48:32;4.90;99.90
20068;DHT22;10194;50.824;7.134;2024-03-06T03:51:01;4.90;99.90
20068;DHT22;10194;50.824;7.134;2024-03-06T03:53:30;4.90;99.90
20068;DHT22;10194;50.824;7.134;2024-03-06T03:55:56;4.80;99.90
20068;DHT22;10194;50.824;7.134;2024-03-06T03:58:21;4.70;99.90
20068;DHT22;10194;50.824;7.134;2024-03-06T04:00:47;4.60;99.90
20068;DHT22;10194;50.824;7.134;2024-03-06T04:03:13;4.60;99.90
20068;DHT22;10194;50.824;7.134;2024-03-06T04:05:39;4.60;99.90
20068;DHT22;10194;50.824;7.134;2024-03-06T04:08:05;4.60;99.90
20068;DHT22;10194;50.824;7.134;2024-03-06T04:10:32;4.40;99.90
20068;DHT22;10194;50.824;7.134;2024-03-06T04:12:58;4.50;99.90
20068;DHT22;10194;50.824;7.134;2024-03-06T04:15:25;4.50;99.90
20068;DHT22;10194;50.824;7.134;2024-03-06T04:17:51;4.50;99.90
20068;DHT22;10194;50.824;7.134;2024-03-06T04:20:17;4.60;99.90
20068;DHT22;10194;50.824;7.134;2024-03-06T04:22:44;4.70;99.90
20068;DHT22;10194;50.824;7.134;2024-03-06T04:25:11;4.60;99.90
20068;DHT22;10194;50.824;7.134;2024-03-06T04:27:37;4.40;99.90
20068;DHT22;10194;50.824;7.134;2024-03-06T04:30:04;4.50;99.90
20068;DHT22;10194;50.824;7.134;2024-03-06T04:32:30;4.50;99.90
20068;DHT22;10194;50.824;7.134;2024-03-06T04:34:55;4.70;99.90
20068;DHT22;10194;50.824;7.134;2024-03-06T04:37:22;4.80;99.90
20068;DHT22;10194;50.824;7.134;2024-03-06T04:39:48;4.90;99.90
20068;DHT22;10194;50.824;7.134;2024-03-06T04:42:14;4.90;99.90
20068;DHT22;10194;50.824;7.134;2024-03-06T04:44:40;4.90;99.90
20068;DHT22;10194;50.824;7.134;2024-03-06T04:47:08;4.90;99.90
20068;DHT22;10194;50.824;7.134;2024-03-06T04:49:34;4.80;99.90
20068;DHT22;10194;50.824;7.134;2024-03-06T04:52:00;4.70;99.90
20068;DHT22;10194;50.824;7.134;2024-03-06T04:54:26;4.60;99.90
20068;DHT22;10194;50.824;7.134;2024-03-06T04:56:52;4.60;99.90
20068;DHT22;10194;50.824;7.134;2024-03-06T04:59:18;4.60;99.90
20068;DHT22;10194;50.824;7.134;2024-03-06T05:01:43;4.70;99.90
20068;DHT22;10194;50.824;7.134;2024-03-06T05:04:09;4.80;99.90
20068;DHT22;10194;50.824;7.134;2024-03-06T05:06:37;4.70;99.90
20068;DHT22;10194;50.824;7.134;2024-03-06T05:09:03;4.80;99.90
20068;DHT22;10194;50.824;7.134;2024-03-06T05:11:29;4.80;99.90
20068;DHT22;10194;50.824;7.134;2024-03-06T05:14:01;4.80;99.90
20068;DHT22;10194;50.824;7.134;2024-03-06T05:16:28;4.80;99.90
20068;DHT22;10194;50.824;7.134;2024-03-06T05:18:54;4.80;99.90
20068;DHT22;10194;50.824;7.134;2024-03-06T05:21:20;4.90;99.90
20068;DHT22;10194;50.824;7.134;2024-03-06T05:23:48;4.80;99.90
20068;DHT22;10194;50.824;7.134;2024-03-06T05:26:14;4.90;99.90
20068;DHT22;10194;50.824;7.134;2024-03-06T05:28:41;4.90;99.90
20068;DHT22;10194;50.824;7.134;2024-03-06T05:31:16;4.90;99.90
20068;DHT22;10194;50.824;7.134;2024-03-06T05:33:49;4.90;99.90
20068;DHT22;10194;50.824;7.134;2024-03-06T05:36:15;4.90;99.90
20068;DHT22;10194;50.824;7.134;2024-03-06T05:38:43;4.90;99.90
20068;DHT22;10194;50.824;7.134;2024-03-06T05:41:09;4.90;99.90
20068;DHT22;10194;50.824;7.134;2024-03-06T05:43:35;4.80;99.90
20068;DHT22;10194;50.824;7.134;2024-03-06T05:46:01;4.80;99.90
20068;DHT22;10194;50.824;7.134;2024-03-06T05:48:27;4.80;99.90
20068;DHT22;10194;50.824;7.134;2024-03-06T05:50:55;4.80;99.90
20068;DHT22;10194;50.824;7.134;2024-03-06T05:53:21;4.70;99.90
20068;DHT22;10194;50.824;7.134;2024-03-06T05:55:47;4.70;99.90
20068;DHT22;10194;50.824;7.134;2024-03-06T05:58:12;4.80;99.90
20068;DHT22;10194;50.824;7.134;2024-03-06T06:00:38;4.70;99.90
20068;DHT22;10194;50.824;7.134;2024-03-06T06:03:04;4.60;99.90
20068;DHT22;10194;50.824;7.134;2024-03-06T06:05:30;4.70;99.90
20068;DHT22;10194;50.824;7.134;2024-03-06T06:07:56;4.60;99.90
20068;DHT22;10194;50.824;7.134;2024-03-06T06:10:21;4.70;99.90
20068;DHT22;10194;50.824;7.134;2024-03-06T06:12:47;4.70;99.90
20068;DHT22;10194;50.824;7.134;2024-03-06T06:15:14;4.70;99.90
20068;DHT22;10194;50.824;7.134;2024-03-06T06:17:40;4.80;99.90
20068;DHT22;10194;50.824;7.134;2024-03-06T06:20:09;4.80;99.90
20068;DHT22;10194;50.824;7.134;2024-03-06T06:22:40;4.80;99.90
20068;DHT22;10194;50.824;7.134;2024-03-06T06:25:07;4.80;99.90
20068;DHT22;10194;50.824;7.134;2024-03-06T06:27:33;4.90;99.90
20068;DHT22;10194;50.824;7.134;2024-03-06T06:29:59;4.90;99.90
20068;DHT22;10194;50.824;7.134;2024-03-06T06:32:25;4.80;99.90
20068;DHT22;10194;50.824;7.134;2024-03-06T06:34:50;4.80;99.90
20068;DHT22;10194;50.824;7.134;2024-03-06T06:37:17;4.80;99.90
20068;DHT22;10194;50.824;7.134;2024-03-06T06:39:45;4.80;99.90
20068;DHT22;10194;50.824;7.134;2024-03-06T06:42:11;4.80;99.90
20068;DHT22;10194;50.824;7.134;2024-03-06T06:44:37;4.80;99.90
20068;DHT22;10194;50.824;7.134;2024-03-06T06:47:02;4.90;99.90
20068;DHT22;10194;50.824;7.134;2024-03-06T06:49:28;4.90;99.90
20068;DHT22;10194;50.824;7.134;2024-03-06T06:51:54;4.90;99.90
20068;DHT22;10194;50.824;7.134;2024-03-06T06:54:19;5.00;99.90
20068;DHT22;10194;50.824;7.134;2024-03-06T06:56:45;5.00;99.90
20068;DHT22;10194;50.824;7.134;2024-03-06T06:59:11;4.90;99.90
20068;DHT22;10194;50.824;7.134;2024-03-06T07:01:38;4.90;99.90
20068;DHT22;10194;50.824;7.134;2024-03-06T07:04:06;4.80;99.90
20068;DHT22;10194;50.824;7.134;2024-03-06T07:06:32;4.80;99.90
20068;DHT22;10194;50.824;7.134;2024-03-06T07:08:57;4.90;99.90
20068;DHT22;10194;50.824;7.134;2024-03-06T07:11:23;4.80;99.90
20068;DHT22;10194;50.824;7.134;2024-03-06T07:13:49;4.90;99.90
20068;DHT22;10194;50.824;7.134;2024-03-06T07:16:15;4.90;99.90
20068;DHT22;10194;50.824;7.134;2024-03-06T07:18:41;5.00;99.90
20068;DHT22;10194;50.824;7.134;2024-03-06T07:21:06;5.00;99.90
20068;DHT22;10194;50.824;7.134;2024-03-06T07:23:33;5.00;99.90
20068;DHT22;10194;50.824;7.134;2024-03-06T07:25:58;5.00;99.90
20068;DHT22;10194;50.824;7.134;2024-03-06T07:28:25;5.10;99.90
20068;DHT22;10194;50.824;7.134;2024-03-06T07:30:51;5.20;99.90
20068;DHT22;10194;50.824;7.134;2024-03-06T07:33:17;5.20;99.90
20068;DHT22;10194;50.824;7.134;2024-03-06T07:35:43;5.10;99.90
20068;DHT22;10194;50.824;7.134;2024-03-06T07:38:09;5.10;99.90
20068;DHT22;10194;50.824;7.134;2024-03-06T07:40:35;5.20;99.90
20068;DHT22;10194;50.824;7.134;2024-03-06T07:43:01;5.00;99.90
20068;DHT22;10194;50.824;7.134;2024-03-06T07:45:26;5.10;99.90
20068;DHT22;10194;50.824;7.134;2024-03-06T07:47:53;5.10;99.90
20068;DHT22;10194;50.824;7.134;2024-03-06T07:50:19;5.10;99.90
20068;DHT22;10194;50.824;7.134;2024-03-06T07:52:45;5.00;99.90
20068;DHT22;10194;50.824;7.134;2024-03-06T07:55:12;4.80;99.90
20068;DHT22;10194;50.824;7.134;2024-03-06T07:57:37;4.90;99.90
20068;DHT22;10194;50.824;7.134;2024-03-06T08:00:07;5.10;99.90
20068;DHT22;10194;50.824;7.134;2024-03-06T08:02:40;5.10;99.90
20068;DHT22;10194;50.824;7.134;2024-03-06T08:05:12;5.30;99.90
20068;DHT22;10194;50.824;7.134;2024-03-06T08:07:39;5.20;99.90
20068;DHT22;10194;50.824;7.134;2024-03-06T08:10:10;5.40;99.90
20068;DHT22;10194;50.824;7.134;2024-03-06T08:12:42;5.30;99.90
20068;DHT22;10194;50.824;7.134;2024-03-06T08:15:11;5.20;99.90
20068;DHT22;10194;50.824;7.134;2024-03-06T08:17:43;5.40;99.90
20068;DHT22;10194;50.824;7.134;2024-03-06T08:20:10;5.40;99.90
20068;DHT22;10194;50.824;7.134;2024-03-06T08:22:42;5.50;99.90
20068;DHT22;10194;50.824;7.134;2024-03-06T08:25:10;5.60;99.90
20068;DHT22;10194;50.824;7.134;2024-03-06T08:27:39;5.60;99.90
20068;DHT22;10194;50.824;7.134;2024-03-06T08:30:06;5.90;99.90
20068;DHT22;10194;50.824;7.134;2024-03-06T08:32:33;5.80;99.90
20068;DHT22;10194;50.824;7.134;2024-03-06T08:35:04;5.80;99.90
20068;DHT22;10194;50.824;7.134;2024-03-06T08:37:33;5.90;99.90
20068;DHT22;10194;50.824;7.134;2024-03-06T08:40:02;6.10;99.90
20068;DHT22;10194;50.824;7.134;2024-03-06T08:42:28;6.30;99.90
20068;DHT22;10194;50.824;7.134;2024-03-06T08:44:54;6.60;99.90
20068;DHT22;10194;50.824;7.134;2024-03-06T08:47:20;6.60;99.90
20068;DHT22;10194;50.824;7.134;2024-03-06T08:49:46;6.70;99.90
20068;DHT22;10194;50.824;7.134;2024-03-06T08:52:13;6.70;99.90
20068;DHT22;10194;50.824;7.134;2024-03-06T08:54:40;6.80;99.90
20068;DHT22;10194;50.824;7.134;2024-03-06T08:57:07;6.80;99.90
20068;DHT22;10194;50.824;7.134;2024-03-06T08:59:34;7.00;99.90
20068;DHT22;10194;50.824;7.134;2024-03-06T09:04:42;7.30;99.90
20068;DHT22;10194;50.824;7.134;2024-03-06T09:07:08;7.30;99.90
20068;DHT22;10194;50.824;7.134;2024-03-06T09:09:35;7.40;99.90
20068;DHT22;10194;50.824;7.134;2024-03-06T09:12:03;7.40;99.90
20068;DHT22;10194;50.824;7.134;2024-03-06T09:14:35;7.30;99.90
20068;DHT22;10194;50.824;7.134;2024-03-06T09:17:01;7.40;99.90
20068;DHT22;10194;50.824;7.134;2024-03-06T09:19:27;7.50;99.90
20068;DHT22;10194;50.824;7.134;2024-03-06T09:21:53;7.50;99.90
20068;DHT22;10194;50.824;7.134;2024-03-06T09:24:20;7.40;99.90
20068;DHT22;10194;50.824;7.134;2024-03-06T09:26:48;7.30;99.90
20068;DHT22;10194;50.824;7.134;2024-03-06T09:29:14;7.50;99.90
20068;DHT22;10194;50.824;7.134;2024-03-06T09:31:40;7.60;99.90
20068;DHT22;10194;50.824;7.134;2024-03-06T09:34:06;7.70;99.90
20068;DHT22;10194;50.824;7.134;2024-03-06T09:36:32;7.70;99.90
20068;DHT22;10194;50.824;7.134;2024-03-06T09:38:59;7.80;99.90
20068;DHT22;10194;50.824;7.134;2024-03-06T09:41:25;7.80;99.90
20068;DHT22;10194;50.824;7.134;2024-03-06T09:43:50;8.00;99.90
20068;DHT22;10194;50.824;7.134;2024-03-06T09:46:17;7.90;99.90
20068;DHT22;10194;50.824;7.134;2024-03-06T09:48:47;8.00;99.90
20068;DHT22;10194;50.824;7.134;2024-03-06T09:51:14;7.90;99.90
20068;DHT22;10194;50.824;7.134;2024-03-06T09:53:41;8.00;99.90
20068;DHT22;10194;50.824;7.134;2024-03-06T09:56:10;8.00;99.90
20068;DHT22;10194;50.824;7.134;2024-03-06T09:58:36;8.20;99.90
20068;DHT22;10194;50.824;7.134;2024-03-06T10:01:02;8.50;99.90
20068;DHT22;10194;50.824;7.134;2024-03-06T10:03:29;8.60;99.90
20068;DHT22;10194;50.824;7.134;2024-03-06T10:05:55;8.60;99.90
20068;DHT22;10194;50.824;7.134;2024-03-06T10:08:22;8.70;99.90
20068;DHT22;10194;50.824;7.134;2024-03-06T10:10:49;8.60;99.90
20068;DHT22;10194;50.824;7.134;2024-03-06T10:13:18;9.00;99.90
20068;DHT22;10194;50.824;7.134;2024-03-06T10:16:02;9.10;99.90
20068;DHT22;10194;50.824;7.134;2024-03-06T10:18:30;9.20;99.90
20068;DHT22;10194;50.824;7.134;2024-03-06T10:20:57;9.20;99.90
20068;DHT22;10194;50.824;7.134;2024-03-06T10:23:23;9.10;99.90
20068;DHT22;10194;50.824;7.134;2024-03-06T10:25:51;9.20;99.90
20068;DHT22;10194;50.824;7.134;2024-03-06T10:28:24;9.50;99.90
20068;DHT22;10194;50.824;7.134;2024-03-06T10:30:50;9.60;99.90
20068;DHT22;10194;50.824;7.134;2024-03-06T10:33:18;9.70;99.90
20068;DHT22;10194;50.824;7.134;2024-03-06T10:35:46;9.70;99.90
20068;DHT22;10194;50.824;7.134;2024-03-06T10:38:20;9.80;99.90
20068;DHT22;10194;50.824;7.134;2024-03-06T10:40:46;9.80;99.90
20068;DHT22;10194;50.824;7.134;2024-03-06T10:43:12;10.00;99.90
20068;DHT22;10194;50.824;7.134;2024-03-06T10:45:50;10.10;99.90
20068;DHT22;10194;50.824;7.134;2024-03-06T10:48:20;10.30;99.90
20068;DHT22;10194;50.824;7.134;2024-03-06T10:50:48;10.50;99.90
20068;DHT22;10194;50.824;7.134;2024-03-06T10:53:15;10.70;99.90
20068;DHT22;10194;50.824;7.134;2024-03-06T10:55:46;11.00;99.90
20068;DHT22;10194;50.824;7.134;2024-03-06T11:00:47;11.10;99.90
20068;DHT22;10194;50.824;7.134;2024-03-06T11:03:14;11.10;99.90
20068;DHT22;10194;50.824;7.134;2024-03-06T11:05:42;10.90;99.90
20068;DHT22;10194;50.824;7.134;2024-03-06T11:08:12;10.90;99.90
20068;DHT22;10194;50.824;7.134;2024-03-06T11:10:40;10.80;99.90
20068;DHT22;10194;50.824;7.134;2024-03-06T11:13:23;10.70;99.90
20068;DHT22;10194;50.824;7.134;2024-03-06T11:15:52;10.50;99.90
20068;DHT22;10194;50.824;7.134;2024-03-06T11:23:32;10.10;99.90
20068;DHT22;10194;50.824;7.134;2024-03-06T11:26:05;10.20;99.90
20068;DHT22;10194;50.824;7.134;2024-03-06T11:28:32;10.20;99.90
20068;DHT22;10194;50.824;7.134;2024-03-06T11:31:00;10.10;99.90
20068;DHT22;10194;50.824;7.134;2024-03-06T11:33:47;9.90;99.90
20068;DHT22;10194;50.824;7.134;2024-03-06T11:39:03;10.00;99.90
20068;DHT22;10194;50.824;7.134;2024-03-06T11:41:50;9.90;99.90
20068;DHT22;10194;50.824;7.134;2024-03-06T11:44:18;9.90;99.90
20068;DHT22;10194;50.824;7.134;2024-03-06T11:46:48;9.80;99.90
20068;DHT22;10194;50.824;7.134;2024-03-06T11:49:21;9.80;99.90
20068;DHT22;10194;50.824;7.134;2024-03-06T11:51:53;9.80;99.90
20068;DHT22;10194;50.824;7.134;2024-03-06T11:54:20;9.70;99.90
20068;DHT22;10194;50.824;7.134;2024-03-06T11:56:49;9.70;99.90
20068;DHT22;10194;50.824;7.134;2024-03-06T11:59:17;9.70;99.90
20068;DHT22;10194;50.824;7.134;2024-03-06T12:01:43;9.80;99.90
20068;DHT22;10194;50.824;7.134;2024-03-06T12:04:09;9.90;99.90
20068;DHT22;10194;50.824;7.134;2024-03-06T12:06:36;9.90;99.90
20068;DHT22;10194;50.824;7.134;2024-03-06T12:09:02;9.80;99.90
20068;DHT22;10194;50.824;7.134;2024-03-06T12:11:29;9.80;99.90
20068;DHT22;10194;50.824;7.134;2024-03-06T12:13:56;9.90;99.90
20068;DHT22;10194;50.824;7.134;2024-03-06T12:16:23;10.00;99.90
20068;DHT22;10194;50.824;7.134;2024-03-06T12:18:58;10.10;99.90
20068;DHT22;10194;50.824;7.134;2024-03-06T12:21:29;10.00;99.90
20068;DHT22;10194;50.824;7.134;2024-03-06T12:26:29;10.20;99.90
20068;DHT22;10194;50.824;7.134;2024-03-06T12:29:10;10.30;99.90
20068;DHT22;10194;50.824;7.134;2024-03-06T12:31:38;10.30;99.90
20068;DHT22;10194;50.824;7.134;2024-03-06T12:34:07;10.40;99.90
20068;DHT22;10194;50.824;7.134;2024-03-06T12:36:33;10.50;99.90
20068;DHT22;10194;50.824;7.134;2024-03-06T12:39:00;10.60;99.90
20068;DHT22;10194;50.824;7.134;2024-03-06T12:41:27;10.80;99.90
20068;DHT22;10194;50.824;7.134;2024-03-06T12:43:54;11.00;99.90
20068;DHT22;10194;50.824;7.134;2024-03-06T12:46:22;11.10;99.90
20068;DHT22;10194;50.824;7.134;2024-03-06T12:48:48;11.20;99.90
20068;DHT22;10194;50.824;7.134;2024-03-06T12:51:14;11.20;99.90
20068;DHT22;10194;50.824;7.134;2024-03-06T12:53:39;11.20;99.90
20068;DHT22;10194;50.824;7.134;2024-03-06T12:56:06;11.20;99.90
20068;DHT22;10194;50.824;7.134;2024-03-06T12:58:33;11.40;99.90
20068;DHT22;10194;50.824;7.134;2024-03-06T13:01:01;11.30;99.90
20068;DHT22;10194;50.824;7.134;2024-03-06T13:03:27;11.40;99.90
20068;DHT22;10194;50.824;7.134;2024-03-06T13:05:53;11.50;99.90
20068;DHT22;10194;50.824;7.134;2024-03-06T13:08:19;11.50;99.90
20068;DHT22;10194;50.824;7.134;2024-03-06T13:10:45;11.60;99.90
20068;DHT22;10194;50.824;7.134;2024-03-06T13:13:11;11.70;99.90
20068;DHT22;10194;50.824;7.134;2024-03-06T13:15:37;11.80;99.90
20068;DHT22;10194;50.824;7.134;2024-03-06T13:18:03;11.70;99.90
20068;DHT22;10194;50.824;7.134;2024-03-06T13:20:30;11.80;99.90
20068;DHT22;10194;50.824;7.134;2024-03-06T13:22:56;11.90;99.90
20068;DHT22;10194;50.824;7.134;2024-03-06T13:25:22;11.70;99.90
20068;DHT22;10194;50.824;7.134;2024-03-06T13:27:48;11.70;99.90
20068;DHT22;10194;50.824;7.134;2024-03-06T13:30:15;11.70;99.90
20068;DHT22;10194;50.824;7.134;2024-03-06T13:32:41;11.80;99.90
20068;DHT22;10194;50.824;7.134;2024-03-06T13:35:08;11.90;99.90
20068;DHT22;10194;50.824;7.134;2024-03-06T13:37:39;11.80;99.90
20068;DHT22;10194;50.824;7.134;2024-03-06T13:40:07;11.80;99.90
20068;DHT22;10194;50.824;7.134;2024-03-06T13:42:34;11.90;99.90
20068;DHT22;10194;50.824;7.134;2024-03-06T13:45:01;11.90;99.90
20068;DHT22;10194;50.824;7.134;2024-03-06T13:47:27;11.90;99.90
20068;DHT22;10194;50.824;7.134;2024-03-06T13:49:53;11.90;99.90
20068;DHT22;10194;50.824;7.134;2024-03-06T13:52:20;11.90;99.90
20068;DHT22;10194;50.824;7.134;2024-03-06T13:54:47;12.00;99.90
20068;DHT22;10194;50.824;7.134;2024-03-06T13:57:15;12.00;99.90
20068;DHT22;10194;50.824;7.134;2024-03-06T13:59:41;11.90;99.90
20068;DHT22;10194;50.824;7.134;2024-03-06T14:02:08;11.80;99.90
20068;DHT22;10194;50.824;7.134;2024-03-06T14:04:34;11.80;99.90
20068;DHT22;10194;50.824;7.134;2024-03-06T14:07:00;11.90;99.90
20068;DHT22;10194;50.824;7.134;2024-03-06T14:09:26;12.10;99.90
20068;DHT22;10194;50.824;7.134;2024-03-06T14:11:53;12.20;99.90
20068;DHT22;10194;50.824;7.134;2024-03-06T14:14:20;12.30;99.90
20068;DHT22;10194;50.824;7.134;2024-03-06T14:16:46;12.30;99.90
20068;DHT22;10194;50.824;7.134;2024-03-06T14:19:12;12.20;99.90
20068;DHT22;10194;50.824;7.134;2024-03-06T14:21:39;12.10;99.90
20068;DHT22;10194;50.824;7.134;2024-03-06T14:24:05;12.10;99.90
20068;DHT22;10194;50.824;7.134;2024-03-06T14:26:35;12.20;99.90
20068;DHT22;10194;50.824;7.134;2024-03-06T14:29:01;12.30;99.90
20068;DHT22;10194;50.824;7.134;2024-03-06T14:31:32;12.20;99.90
20068;DHT22;10194;50.824;7.134;2024-03-06T14:33:58;12.30;99.90
20068;DHT22;10194;50.824;7.134;2024-03-06T14:36:24;12.40;99.90
20068;DHT22;10194;50.824;7.134;2024-03-06T14:38:51;12.40;99.90
20068;DHT22;10194;50.824;7.134;2024-03-06T14:41:20;12.40;99.90
20068;DHT22;10194;50.824;7.134;2024-03-06T14:43:46;12.50;99.90
20068;DHT22;10194;50.824;7.134;2024-03-06T14:46:12;12.30;99.90
20068;DHT22;10194;50.824;7.134;2024-03-06T14:48:38;12.30;99.90
20068;DHT22;10194;50.824;7.134;2024-03-06T14:51:06;12.30;99.90
20068;DHT22;10194;50.824;7.134;2024-03-06T14:53:32;12.40;99.90
20068;DHT22;10194;50.824;7.134;2024-03-06T14:55:58;12.40;99.90
20068;DHT22;10194;50.824;7.134;2024-03-06T14:58:24;12.30;99.90
20068;DHT22;10194;50.824;7.134;2024-03-06T15:00:50;12.40;99.90
20068;DHT22;10194;50.824;7.134;2024-03-06T15:03:18;12.40;99.90
20068;DHT22;10194;50.824;7.134;2024-03-06T15:05:44;12.50;99.90
20068;DHT22;10194;50.824;7.134;2024-03-06T15:08:11;12.50;99.90
20068;DHT22;10194;50.824;7.134;2024-03-06T15:10:37;12.40;99.90
20068;DHT22;10194;50.824;7.134;2024-03-06T15:13:03;12.20;99.90
20068;DHT22;10194;50.824;7.134;2024-03-06T15:15:29;12.30;99.90
20068;DHT22;10194;50.824;7.134;2024-03-06T15:17:56;12.50;99.90
20068;DHT22;10194;50.824;7.134;2024-03-06T15:20:23;12.50;99.90
20068;DHT22;10194;50.824;7.134;2024-03-06T15:22:49;12.50;99.90
20068;DHT22;10194;50.824;7.134;2024-03-06T15:25:17;12.60;99.90
20068;DHT22;10194;50.824;7.134;2024-03-06T15:27:43;12.50;99.90
20068;DHT22;10194;50.824;7.134;2024-03-06T15:30:10;12.50;99.90
20068;DHT22;10194;50.824;7.134;2024-03-06T15:32:39;12.50;99.90
20068;DHT22;10194;50.824;7.134;2024-03-06T15:35:05;12.50;99.90
20068;DHT22;10194;50.824;7.134;2024-03-06T15:37:33;12.40;99.90
20068;DHT22;10194;50.824;7.134;2024-03-06T15:39:59;12.40;99.90
20068;DHT22;10194;50.824;7.134;2024-03-06T15:42:25;12.40;99.90
20068;DHT22;10194;50.824;7.134;2024-03-06T15:44:51;12.30;99.90
20068;DHT22;10194;50.824;7.134;2024-03-06T15:47:18;12.40;99.90
20068;DHT22;10194;50.824;7.134;2024-03-06T15:49:45;12.20;99.90
20068;DHT22;10194;50.824;7.134;2024-03-06T15:52:12;12.20;99.90
20068;DHT22;10194;50.824;7.134;2024-03-06T15:54:39;12.20;99.90
20068;DHT22;10194;50.824;7.134;2024-03-06T15:57:05;12.10;99.90